Time;durP1;ratioP1;P1;durP2;ratioP2;P2;SDS_P1;SDS_P2;PMS_P1;PMS_P2;Temp;Humidity;BMP_temperature;BMP_pressure;BME280_temperature;BME280_humidity;BME280_pressure;Samples;Min_cycle;Max_cycle;Signal;HPM_P1;HPM_P2
2022/03/11 00:02:23;;;;;;;;;;;5.60;59.90;;;;;;5047730;28;19983;-88
2022/03/11 00:04:49;;;;;;;;;;;5.40;60.80;;;;;;5040865;28;19913;-88
2022/03/11 00:07:15;;;;;;;;;;;5.30;61.50;;;;;;5044146;28;19978;-88
2022/03/11 00:09:41;;;;;;;;;;;5.30;60.50;;;;;;5049428;28;19913;-88
2022/03/11 00:12:07;;;;;;;;;;;5.40;61.00;;;;;;5053939;28;19912;-88
2022/03/11 00:14:33;;;;;;;;;;;5.40;60.50;;;;;;5033857;28;19909;-88
2022/03/11 00:16:59;;;;;;;;;;;5.40;60.50;;;;;;5050223;28;19924;-88
2022/03/11 00:19:27;;;;;;;;;;;5.30;60.60;;;;;;5046348;28;20406;-88
2022/03/11 00:21:54;;;;;;;;;;;5.30;61.40;;;;;;5042671;28;20008;-89
2022/03/11 00:24:20;;;;;;;;;;;5.30;61.00;;;;;;5050433;28;19901;-89
2022/03/11 00:26:48;;;;;;;;;;;5.20;61.70;;;;;;5046384;28;20020;-89
2022/03/11 00:29:17;;;;;;;;;;;5.10;62.00;;;;;;5056442;28;19917;-89
2022/03/11 00:31:45;;;;;;;;;;;5.10;62.10;;;;;;5059819;28;19990;-88
2022/03/11 00:34:11;;;;;;;;;;;5.10;61.90;;;;;;5043553;28;20284;-88
2022/03/11 00:36:46;;;;;;;;;;;5.10;62.60;;;;;;5049858;28;19913;-89
2022/03/11 00:39:12;;;;;;;;;;;5.00;62.50;;;;;;5055820;28;19917;-88
2022/03/11 00:41:37;;;;;;;;;;;4.90;62.60;;;;;;5045619;28;19916;-89
2022/03/11 00:44:06;;;;;;;;;;;4.90;62.80;;;;;;5036961;28;19924;-87
2022/03/11 00:46:31;;;;;;;;;;;4.80;63.10;;;;;;5052356;28;19924;-88
2022/03/11 00:48:57;;;;;;;;;;;4.90;62.90;;;;;;5049078;28;19917;-88
2022/03/11 00:51:22;;;;;;;;;;;4.90;62.30;;;;;;5058375;28;20443;-88
2022/03/11 00:53:50;;;;;;;;;;;4.80;62.60;;;;;;5042845;28;19917;-88
2022/03/11 00:56:16;;;;;;;;;;;4.90;62.90;;;;;;5051228;28;19913;-88
2022/03/11 00:58:42;;;;;;;;;;;4.90;62.70;;;;;;5055537;28;19920;-88
2022/03/11 01:01:07;;;;;;;;;;;4.90;62.60;;;;;;5039371;28;19913;-88
2022/03/11 01:03:33;;;;;;;;;;;4.90;62.80;;;;;;5039932;28;20023;-89
2022/03/11 01:05:58;;;;;;;;;;;4.80;63.00;;;;;;5038814;28;19913;-89
2022/03/11 01:08:23;;;;;;;;;;;4.80;62.60;;;;;;5045963;28;20364;-89
2022/03/11 01:10:49;;;;;;;;;;;4.80;63.00;;;;;;5056182;28;20251;-89
2022/03/11 01:13:18;;;;;;;;;;;4.90;62.20;;;;;;5056914;28;19976;-89
2022/03/11 01:15:43;;;;;;;;;;;4.90;62.40;;;;;;5055602;28;19917;-88
2022/03/11 01:18:12;;;;;;;;;;;4.90;62.10;;;;;;5056032;28;20269;-89
2022/03/11 01:20:37;;;;;;;;;;;5.00;62.10;;;;;;5037981;28;19913;-89
2022/03/11 01:23:03;;;;;;;;;;;4.90;61.50;;;;;;5038590;28;20427;-89
2022/03/11 01:25:31;;;;;;;;;;;4.90;62.30;;;;;;5048460;28;20383;-89
2022/03/11 01:28:03;;;;;;;;;;;4.90;61.80;;;;;;5043255;28;19925;-89
2022/03/11 01:30:29;;;;;;;;;;;4.90;61.80;;;;;;5031560;28;19913;-89
2022/03/11 01:32:54;;;;;;;;;;;4.80;61.60;;;;;;5036765;28;19913;-89
2022/03/11 01:35:20;;;;;;;;;;;4.90;61.60;;;;;;5040339;28;19913;-89
2022/03/11 01:37:45;;;;;;;;;;;5.00;61.10;;;;;;5037226;28;19933;-89
2022/03/11 01:40:11;;;;;;;;;;;5.00;62.10;;;;;;5036207;28;20349;-89
2022/03/11 01:42:39;;;;;;;;;;;4.90;61.40;;;;;;5040650;28;19996;-89
2022/03/11 01:45:05;;;;;;;;;;;4.90;61.30;;;;;;5042209;28;19959;-88
2022/03/11 01:47:32;;;;;;;;;;;4.90;61.60;;;;;;5042058;28;20316;-89
2022/03/11 01:49:57;;;;;;;;;;;4.90;61.10;;;;;;5046452;28;19913;-89
2022/03/11 01:52:25;;;;;;;;;;;4.90;60.50;;;;;;5041080;28;19935;-89
2022/03/11 01:54:56;;;;;;;;;;;4.90;61.10;;;;;;5039682;28;19923;-89
2022/03/11 01:57:21;;;;;;;;;;;4.90;60.60;;;;;;5053570;28;19912;-89
2022/03/11 01:59:50;;;;;;;;;;;4.90;61.30;;;;;;5049443;28;19917;-89
2022/03/11 02:02:23;;;;;;;;;;;4.90;61.20;;;;;;5041014;28;19927;-89
2022/03/11 02:04:54;;;;;;;;;;;4.70;61.50;;;;;;5041995;28;20007;-88
2022/03/11 02:07:20;;;;;;;;;;;4.80;61.20;;;;;;5053531;28;19978;-89
2022/03/11 02:09:46;;;;;;;;;;;4.80;60.70;;;;;;5046461;28;20319;-88
2022/03/11 02:12:11;;;;;;;;;;;4.70;61.90;;;;;;5034542;28;19932;-89
2022/03/11 02:14:39;;;;;;;;;;;4.70;61.50;;;;;;5034849;28;19924;-88
2022/03/11 02:17:05;;;;;;;;;;;4.70;61.90;;;;;;5049891;28;19909;-88
2022/03/11 02:19:31;;;;;;;;;;;4.70;61.80;;;;;;5033171;28;19913;-88
2022/03/11 02:21:59;;;;;;;;;;;4.70;61.10;;;;;;5044854;28;19920;-88
2022/03/11 02:24:27;;;;;;;;;;;4.70;61.60;;;;;;5048543;28;20320;-88
2022/03/11 02:26:53;;;;;;;;;;;4.70;61.70;;;;;;5031727;28;19917;-88
2022/03/11 02:29:18;;;;;;;;;;;4.70;62.10;;;;;;5033103;28;19920;-88
2022/03/11 02:31:44;;;;;;;;;;;4.70;61.90;;;;;;5076884;28;20375;-88
2022/03/11 02:34:10;;;;;;;;;;;4.60;62.40;;;;;;5044288;28;20012;-89
2022/03/11 02:36:35;;;;;;;;;;;4.60;62.90;;;;;;5028118;28;19917;-89
2022/03/11 02:39:01;;;;;;;;;;;4.50;62.80;;;;;;5032342;28;20415;-89
2022/03/11 02:41:26;;;;;;;;;;;4.40;63.10;;;;;;5036701;28;20303;-88
2022/03/11 02:43:52;;;;;;;;;;;4.30;63.20;;;;;;5025427;28;19913;-89
2022/03/11 02:46:17;;;;;;;;;;;4.20;64.00;;;;;;5031877;28;19920;-88
2022/03/11 02:48:43;;;;;;;;;;;4.30;63.20;;;;;;5033430;28;19923;-89
2022/03/11 02:51:08;;;;;;;;;;;4.30;62.60;;;;;;5032500;28;20337;-89
2022/03/11 02:53:37;;;;;;;;;;;4.50;61.90;;;;;;5034078;28;19913;-89
2022/03/11 02:56:03;;;;;;;;;;;4.50;61.70;;;;;;5035731;28;20469;-89
2022/03/11 02:58:29;;;;;;;;;;;4.50;61.30;;;;;;5031566;28;19917;-89
2022/03/11 03:00:54;;;;;;;;;;;4.50;61.50;;;;;;5029798;28;19920;-89
2022/03/11 03:03:20;;;;;;;;;;;4.60;62.30;;;;;;5050807;28;19917;-89
2022/03/11 03:05:45;;;;;;;;;;;4.50;61.90;;;;;;5041400;28;20007;-89
2022/03/11 03:08:13;;;;;;;;;;;4.50;61.80;;;;;;5039202;28;20019;-89
2022/03/11 03:10:39;;;;;;;;;;;4.50;61.40;;;;;;5028840;28;20367;-88
2022/03/11 03:13:07;;;;;;;;;;;4.50;61.20;;;;;;5034616;28;19924;-89
2022/03/11 03:15:32;;;;;;;;;;;4.60;60.90;;;;;;5032014;28;19988;-89
2022/03/11 03:17:58;;;;;;;;;;;4.60;61.70;;;;;;5030901;28;19928;-88
2022/03/11 03:20:23;;;;;;;;;;;4.50;62.30;;;;;;5041468;28;19913;-89
2022/03/11 03:22:49;;;;;;;;;;;4.50;61.60;;;;;;5064710;28;19984;-89
2022/03/11 03:25:14;;;;;;;;;;;4.30;63.20;;;;;;5048232;28;19920;-89
2022/03/11 03:27:40;;;;;;;;;;;4.30;63.20;;;;;;5053124;28;20013;-89
2022/03/11 03:30:06;;;;;;;;;;;4.20;63.30;;;;;;5033730;28;20010;-89
2022/03/11 03:32:31;;;;;;;;;;;4.20;63.20;;;;;;5036985;28;19990;-89
2022/03/11 03:34:57;;;;;;;;;;;4.20;63.40;;;;;;5031622;28;20000;-89
2022/03/11 03:37:25;;;;;;;;;;;4.20;63.40;;;;;;5035763;28;20054;-89
2022/03/11 03:39:51;;;;;;;;;;;4.20;63.20;;;;;;5042392;28;19924;-88
2022/03/11 03:42:16;;;;;;;;;;;4.20;62.90;;;;;;5037941;28;19912;-89
2022/03/11 03:44:42;;;;;;;;;;;4.40;60.20;;;;;;5035319;28;19940;-88
2022/03/11 03:47:07;;;;;;;;;;;4.60;59.10;;;;;;5043409;28;19917;-89
2022/03/11 03:49:34;;;;;;;;;;;4.60;58.40;;;;;;5036398;28;19908;-87
2022/03/11 03:52:00;;;;;;;;;;;4.80;57.80;;;;;;5056331;28;19948;-89
2022/03/11 03:54:25;;;;;;;;;;;5.30;55.90;;;;;;5040779;28;20278;-88
2022/03/11 03:56:51;;;;;;;;;;;5.70;54.30;;;;;;5056010;28;19920;-86
2022/03/11 03:59:16;;;;;;;;;;;6.00;53.00;;;;;;5030818;28;19945;-89
2022/03/11 04:01:42;;;;;;;;;;;6.00;52.80;;;;;;5036621;28;20409;-88
2022/03/11 04:04:09;;;;;;;;;;;6.10;53.10;;;;;;5036805;28;19916;-88
2022/03/11 04:06:35;;;;;;;;;;;6.10;51.60;;;;;;5042411;28;19920;-87
2022/03/11 04:09:01;;;;;;;;;;;6.20;52.00;;;;;;5061784;28;19917;-88
2022/03/11 04:11:28;;;;;;;;;;;6.20;52.40;;;;;;5050921;28;20296;-87
2022/03/11 04:13:54;;;;;;;;;;;6.30;51.60;;;;;;5043587;28;19913;-87
2022/03/11 04:16:19;;;;;;;;;;;6.30;51.50;;;;;;5039258;28;19920;-88
2022/03/11 04:18:45;;;;;;;;;;;6.30;51.80;;;;;;5033601;28;19920;-88
2022/03/11 04:21:11;;;;;;;;;;;6.10;51.70;;;;;;5037435;28;19912;-89
2022/03/11 04:23:36;;;;;;;;;;;6.10;51.00;;;;;;5045430;28;20379;-88
2022/03/11 04:26:02;;;;;;;;;;;6.10;51.90;;;;;;5037461;28;20337;-89
2022/03/11 04:28:28;;;;;;;;;;;6.20;51.30;;;;;;5036512;28;20448;-89
2022/03/11 04:30:53;;;;;;;;;;;6.20;51.60;;;;;;5032030;28;19970;-88
2022/03/11 04:33:19;;;;;;;;;;;6.10;52.00;;;;;;5033969;28;19921;-89
2022/03/11 04:35:44;;;;;;;;;;;5.90;53.30;;;;;;5035729;28;19917;-88
2022/03/11 04:38:10;;;;;;;;;;;6.00;52.80;;;;;;5038228;28;19917;-89
2022/03/11 04:40:36;;;;;;;;;;;5.80;53.30;;;;;;5037267;28;19962;-89
2022/03/11 04:43:02;;;;;;;;;;;5.80;52.50;;;;;;5042167;28;19913;-89
2022/03/11 04:45:28;;;;;;;;;;;5.90;52.40;;;;;;5023009;28;19948;-89
2022/03/11 04:47:53;;;;;;;;;;;5.80;53.30;;;;;;5031441;28;20012;-88
2022/03/11 04:50:19;;;;;;;;;;;5.80;53.40;;;;;;5033653;28;19992;-89
2022/03/11 04:52:44;;;;;;;;;;;5.80;53.60;;;;;;5050452;28;19913;-88
2022/03/11 04:55:10;;;;;;;;;;;5.70;52.60;;;;;;5033887;28;19913;-88
2022/03/11 04:57:35;;;;;;;;;;;5.90;52.10;;;;;;5053059;28;19924;-89
2022/03/11 05:00:03;;;;;;;;;;;6.00;51.90;;;;;;5050733;28;19958;-88
2022/03/11 05:02:29;;;;;;;;;;;6.10;50.80;;;;;;5036965;28;19915;-89
2022/03/11 05:04:55;;;;;;;;;;;6.10;51.00;;;;;;5038986;28;19909;-89
2022/03/11 05:07:20;;;;;;;;;;;6.10;51.20;;;;;;5045166;28;20005;-89
2022/03/11 05:09:46;;;;;;;;;;;6.10;51.20;;;;;;5050549;28;20380;-89
2022/03/11 05:12:12;;;;;;;;;;;6.10;51.40;;;;;;5044866;28;20024;-89
2022/03/11 05:14:38;;;;;;;;;;;6.00;50.90;;;;;;5037978;28;20000;-89
2022/03/11 05:17:03;;;;;;;;;;;5.90;51.90;;;;;;5042246;28;19924;-89
2022/03/11 05:19:29;;;;;;;;;;;6.00;51.00;;;;;;5032499;28;19909;-88
2022/03/11 05:21:55;;;;;;;;;;;5.90;52.40;;;;;;5043959;28;19920;-88
2022/03/11 05:24:20;;;;;;;;;;;5.80;51.80;;;;;;5042945;28;20000;-89
2022/03/11 05:26:46;;;;;;;;;;;5.90;50.90;;;;;;5034504;28;19932;-89
2022/03/11 05:29:12;;;;;;;;;;;6.00;50.60;;;;;;5052834;28;20062;-89
2022/03/11 05:31:38;;;;;;;;;;;6.00;51.00;;;;;;5042803;28;19947;-89
2022/03/11 05:34:03;;;;;;;;;;;5.70;51.10;;;;;;5033103;28;19909;-89
2022/03/11 05:36:29;;;;;;;;;;;5.80;51.10;;;;;;5062255;28;19999;-89
2022/03/11 05:38:54;;;;;;;;;;;5.80;50.90;;;;;;5040855;28;20243;-87
2022/03/11 05:41:20;;;;;;;;;;;5.80;51.10;;;;;;5044903;28;19908;-89
2022/03/11 05:43:45;;;;;;;;;;;5.70;52.00;;;;;;5056041;28;19917;-89
2022/03/11 05:46:11;;;;;;;;;;;5.60;51.70;;;;;;5042585;28;19920;-89
2022/03/11 05:48:37;;;;;;;;;;;5.80;51.40;;;;;;5038054;28;20290;-87
2022/03/11 05:51:02;;;;;;;;;;;5.70;51.20;;;;;;5036896;28;20012;-89
2022/03/11 05:53:28;;;;;;;;;;;5.80;51.10;;;;;;5046257;28;19912;-88
2022/03/11 05:55:53;;;;;;;;;;;5.70;51.30;;;;;;5031660;28;20334;-89
2022/03/11 05:58:19;;;;;;;;;;;5.70;51.50;;;;;;5033836;28;19913;-89
2022/03/11 06:00:45;;;;;;;;;;;5.60;51.60;;;;;;5032058;28;20141;-88
2022/03/11 06:03:11;;;;;;;;;;;5.70;51.70;;;;;;5052172;28;20263;-89
2022/03/11 06:05:36;;;;;;;;;;;5.60;51.90;;;;;;5037721;28;19970;-87
2022/03/11 06:08:02;;;;;;;;;;;5.60;51.00;;;;;;5038101;28;19974;-83
2022/03/11 06:10:27;;;;;;;;;;;5.50;51.80;;;;;;5054853;28;19919;-85
2022/03/11 06:12:53;;;;;;;;;;;5.40;52.20;;;;;;5044606;28;20011;-84
2022/03/11 06:15:18;;;;;;;;;;;5.40;51.90;;;;;;5045666;28;19920;-84
2022/03/11 06:17:44;;;;;;;;;;;5.60;52.00;;;;;;5062525;28;19913;-82
2022/03/11 06:20:10;;;;;;;;;;;5.50;51.90;;;;;;5056118;28;19916;-84
2022/03/11 06:22:36;;;;;;;;;;;5.40;52.70;;;;;;5041233;28;19971;-83
2022/03/11 06:25:02;;;;;;;;;;;5.40;53.80;;;;;;5038801;28;19913;-82
2022/03/11 06:27:28;;;;;;;;;;;5.40;53.60;;;;;;5038161;28;19928;-83
2022/03/11 06:29:53;;;;;;;;;;;5.40;52.90;;;;;;5047226;28;19976;-84
2022/03/11 06:32:19;;;;;;;;;;;5.60;51.70;;;;;;5049232;28;19963;-84
2022/03/11 06:34:44;;;;;;;;;;;5.50;52.00;;;;;;5054680;28;20367;-86
2022/03/11 06:37:10;;;;;;;;;;;5.50;52.50;;;;;;5054945;28;19916;-83
2022/03/11 06:39:35;;;;;;;;;;;5.50;52.00;;;;;;5060020;28;19917;-85
2022/03/11 06:42:01;;;;;;;;;;;5.40;52.60;;;;;;5036882;28;19943;-83
2022/03/11 06:44:26;;;;;;;;;;;5.50;51.50;;;;;;5051752;28;19913;-84
2022/03/11 06:46:51;;;;;;;;;;;5.60;51.90;;;;;;5033176;28;20004;-86
2022/03/11 06:49:17;;;;;;;;;;;5.60;51.80;;;;;;5047434;28;19951;-83
2022/03/11 06:51:42;;;;;;;;;;;5.70;52.40;;;;;;5039915;28;19913;-82
2022/03/11 06:54:08;;;;;;;;;;;5.70;51.50;;;;;;5044729;28;19956;-85
2022/03/11 06:56:35;;;;;;;;;;;5.70;51.80;;;;;;5036948;28;19913;-85
2022/03/11 06:59:01;;;;;;;;;;;5.80;51.70;;;;;;5052142;28;19963;-84
2022/03/11 07:01:27;;;;;;;;;;;5.80;51.70;;;;;;5039234;28;20442;-83
2022/03/11 07:03:52;;;;;;;;;;;5.90;52.00;;;;;;5044170;28;19978;-85
2022/03/11 07:06:18;;;;;;;;;;;5.90;51.60;;;;;;5056464;28;19920;-85
2022/03/11 07:08:43;;;;;;;;;;;5.90;51.90;;;;;;5041867;28;20372;-82
2022/03/11 07:11:09;;;;;;;;;;;5.90;51.00;;;;;;5036965;28;19917;-85
2022/03/11 07:13:34;;;;;;;;;;;5.90;51.30;;;;;;5051330;28;19920;-83
2022/03/11 07:16:00;;;;;;;;;;;6.00;50.90;;;;;;5044371;28;19913;-84
2022/03/11 07:18:25;;;;;;;;;;;6.00;51.00;;;;;;5072353;28;19913;-84
2022/03/11 07:20:51;;;;;;;;;;;6.10;50.20;;;;;;5073493;28;19901;-84
2022/03/11 07:23:16;;;;;;;;;;;6.00;50.60;;;;;;5064166;28;19916;-86
2022/03/11 07:25:42;;;;;;;;;;;6.20;50.90;;;;;;5060264;28;19923;-83
2022/03/11 07:28:07;;;;;;;;;;;6.10;49.70;;;;;;5044377;28;19986;-86
2022/03/11 07:30:33;;;;;;;;;;;6.10;49.70;;;;;;5057087;28;19924;-87
2022/03/11 07:32:58;;;;;;;;;;;6.20;50.60;;;;;;5039112;28;20062;-86
2022/03/11 07:35:24;;;;;;;;;;;6.30;50.50;;;;;;5038260;28;19908;-87
2022/03/11 07:37:50;;;;;;;;;;;6.20;50.80;;;;;;5036559;28;19935;-88
2022/03/11 07:40:15;;;;;;;;;;;6.30;51.50;;;;;;5053852;28;20005;-86
2022/03/11 07:42:42;;;;;;;;;;;6.40;50.00;;;;;;5056178;28;19916;-86
2022/03/11 07:45:15;;;;;;;;;;;6.50;49.40;;;;;;5038206;28;19913;-89
2022/03/11 07:47:41;;;;;;;;;;;6.60;48.80;;;;;;5036253;28;19917;-86
2022/03/11 07:50:08;;;;;;;;;;;6.60;49.70;;;;;;5044235;28;19916;-86
2022/03/11 07:52:34;;;;;;;;;;;6.70;49.40;;;;;;5054070;28;20329;-86
2022/03/11 07:55:00;;;;;;;;;;;6.80;48.10;;;;;;5039644;28;19913;-86
2022/03/11 07:57:25;;;;;;;;;;;6.70;48.40;;;;;;5059590;28;19963;-85
2022/03/11 07:59:51;;;;;;;;;;;7.00;48.50;;;;;;5047033;28;19912;-85
2022/03/11 08:02:16;;;;;;;;;;;7.00;48.00;;;;;;5057848;28;19913;-84
2022/03/11 08:04:42;;;;;;;;;;;6.90;47.40;;;;;;5048305;28;19912;-85
2022/03/11 08:07:11;;;;;;;;;;;7.00;47.50;;;;;;5051923;28;19920;-84
2022/03/11 08:09:38;;;;;;;;;;;7.00;48.30;;;;;;5052095;28;20583;-85
2022/03/11 08:12:04;;;;;;;;;;;7.00;48.10;;;;;;5050657;28;19920;-83
2022/03/11 08:14:30;;;;;;;;;;;7.00;47.70;;;;;;5034363;28;20050;-84
2022/03/11 08:16:55;;;;;;;;;;;7.10;48.40;;;;;;5054824;28;20020;-83
2022/03/11 08:19:23;;;;;;;;;;;7.10;47.90;;;;;;5046722;28;19924;-84
2022/03/11 08:21:49;;;;;;;;;;;7.20;48.50;;;;;;5045024;28;19913;-85
2022/03/11 08:24:14;;;;;;;;;;;7.20;47.30;;;;;;5049605;28;19963;-83
2022/03/11 08:26:40;;;;;;;;;;;7.30;47.60;;;;;;5038706;28;19924;-84
2022/03/11 08:29:05;;;;;;;;;;;7.30;48.30;;;;;;5045509;28;20306;-84
2022/03/11 08:31:32;;;;;;;;;;;7.60;47.40;;;;;;5038936;28;19979;-85
2022/03/11 08:33:58;;;;;;;;;;;7.60;46.40;;;;;;5041229;28;19924;-85
2022/03/11 08:36:23;;;;;;;;;;;7.60;47.50;;;;;;5037829;28;19936;-84
2022/03/11 08:38:49;;;;;;;;;;;7.70;47.20;;;;;;5050290;28;19939;-82
2022/03/11 08:41:16;;;;;;;;;;;7.60;46.70;;;;;;5049202;28;19912;-81
2022/03/11 08:43:43;;;;;;;;;;;7.70;47.00;;;;;;5055457;28;19959;-83
2022/03/11 08:46:09;;;;;;;;;;;7.80;46.60;;;;;;5033189;28;19908;-82
2022/03/11 08:48:35;;;;;;;;;;;7.80;46.00;;;;;;5055647;28;19925;-83
2022/03/11 08:51:01;;;;;;;;;;;7.90;45.60;;;;;;5038859;28;19923;-83
2022/03/11 08:53:26;;;;;;;;;;;8.10;46.10;;;;;;5059150;28;19916;-82
2022/03/11 08:55:52;;;;;;;;;;;8.00;45.60;;;;;;5061367;28;19990;-83
2022/03/11 08:58:19;;;;;;;;;;;7.90;46.20;;;;;;5051079;28;20059;-85
2022/03/11 09:00:44;;;;;;;;;;;8.00;46.90;;;;;;5049234;28;19913;-83
2022/03/11 09:03:10;;;;;;;;;;;8.10;45.80;;;;;;5039203;28;20269;-84
2022/03/11 09:05:37;;;;;;;;;;;8.30;46.40;;;;;;5032185;28;19924;-88
2022/03/11 09:08:03;;;;;;;;;;;8.40;45.60;;;;;;5038291;28;19995;-85
2022/03/11 09:10:29;;;;;;;;;;;8.50;44.90;;;;;;5044896;28;19947;-84
2022/03/11 09:12:54;;;;;;;;;;;8.60;44.20;;;;;;5065734;28;19913;-81
2022/03/11 09:15:20;;;;;;;;;;;8.50;44.50;;;;;;5048504;28;20363;-84
2022/03/11 09:17:46;;;;;;;;;;;8.50;45.20;;;;;;5036257;28;20308;-83
2022/03/11 09:20:12;;;;;;;;;;;8.50;44.20;;;;;;5053538;28;20434;-85
2022/03/11 09:22:38;;;;;;;;;;;8.50;44.20;;;;;;5026874;28;19916;-83
2022/03/11 09:25:04;;;;;;;;;;;8.60;43.60;;;;;;5037631;28;19924;-84
2022/03/11 09:27:30;;;;;;;;;;;8.70;43.80;;;;;;5038071;28;20399;-81
2022/03/11 09:29:56;;;;;;;;;;;8.70;44.00;;;;;;5029349;28;19921;-85
2022/03/11 09:32:21;;;;;;;;;;;8.80;43.70;;;;;;5034519;28;19933;-83
2022/03/11 09:34:47;;;;;;;;;;;9.10;43.90;;;;;;5039246;28;19913;-83
2022/03/11 09:37:12;;;;;;;;;;;9.10;43.30;;;;;;5054935;28;20375;-82
2022/03/11 09:39:38;;;;;;;;;;;9.10;43.70;;;;;;5041327;28;19913;-84
2022/03/11 09:42:05;;;;;;;;;;;9.20;43.30;;;;;;5074549;28;19966;-82
2022/03/11 09:44:33;;;;;;;;;;;9.30;42.00;;;;;;5055241;28;19921;-84
2022/03/11 09:46:59;;;;;;;;;;;9.30;42.20;;;;;;5044874;28;19979;-82
2022/03/11 09:49:25;;;;;;;;;;;9.40;42.60;;;;;;5051923;28;20135;-81
2022/03/11 09:51:51;;;;;;;;;;;9.60;42.50;;;;;;5036098;28;19945;-81
2022/03/11 09:54:16;;;;;;;;;;;9.60;41.10;;;;;;5046653;28;19972;-80
2022/03/11 09:56:43;;;;;;;;;;;9.60;42.00;;;;;;5047024;28;19984;-83
2022/03/11 09:59:09;;;;;;;;;;;9.60;41.00;;;;;;5045608;28;19912;-84
2022/03/11 10:01:34;;;;;;;;;;;9.60;41.40;;;;;;5062594;28;19924;-82
2022/03/11 10:04:04;;;;;;;;;;;9.60;42.40;;;;;;5066037;28;19913;-82
2022/03/11 10:06:36;;;;;;;;;;;9.70;41.80;;;;;;5057341;28;20286;-80
2022/03/11 10:09:02;;;;;;;;;;;9.90;40.90;;;;;;5041348;28;19916;-83
2022/03/11 10:11:28;;;;;;;;;;;10.00;40.60;;;;;;5056388;28;19908;-83
2022/03/11 10:13:55;;;;;;;;;;;10.00;40.70;;;;;;5037046;28;20355;-80
2022/03/11 10:16:22;;;;;;;;;;;10.00;41.00;;;;;;5055856;28;20341;-81
2022/03/11 10:18:58;;;;;;;;;;;10.00;40.70;;;;;;5033256;28;19966;-81
2022/03/11 10:21:31;;;;;;;;;;;10.10;40.50;;;;;;5055089;28;19954;-81
2022/03/11 10:23:57;;;;;;;;;;;10.20;41.40;;;;;;5055093;28;19917;-84
2022/03/11 10:26:29;;;;;;;;;;;10.30;40.20;;;;;;5037919;28;19913;-83
2022/03/11 10:28:58;;;;;;;;;;;10.40;40.10;;;;;;5047132;28;19967;-82
2022/03/11 10:31:34;;;;;;;;;;;10.60;39.90;;;;;;5060968;28;19913;-83
2022/03/11 10:34:17;;;;;;;;;;;10.60;39.50;;;;;;5062902;28;19913;-81
2022/03/11 10:36:47;;;;;;;;;;;10.60;39.50;;;;;;5042544;28;20000;-81
2022/03/11 10:39:14;;;;;;;;;;;10.70;39.20;;;;;;5038946;28;19921;-84
2022/03/11 10:41:39;;;;;;;;;;;10.80;40.20;;;;;;5050616;28;20027;-83
2022/03/11 10:44:08;;;;;;;;;;;10.80;39.00;;;;;;5057907;28;19996;-84
2022/03/11 10:46:34;;;;;;;;;;;10.90;38.70;;;;;;5036267;28;19944;-85
2022/03/11 10:49:00;;;;;;;;;;;11.00;38.70;;;;;;5038327;28;20401;-86
2022/03/11 10:51:27;;;;;;;;;;;11.00;38.60;;;;;;5056756;28;20403;-84
2022/03/11 10:53:54;;;;;;;;;;;11.00;39.20;;;;;;5038685;28;19937;-86
2022/03/11 10:56:34;;;;;;;;;;;11.00;39.90;;;;;;5044327;28;19913;-85
2022/03/11 10:59:04;;;;;;;;;;;11.10;40.20;;;;;;5043112;28;20319;-86
2022/03/11 11:01:43;;;;;;;;;;;11.30;39.60;;;;;;5036391;28;19933;-86
2022/03/11 11:04:10;;;;;;;;;;;11.50;38.40;;;;;;5038395;28;19988;-87
2022/03/11 11:06:36;;;;;;;;;;;11.50;40.80;;;;;;5056515;28;19912;-87
2022/03/11 11:09:02;;;;;;;;;;;11.60;38.80;;;;;;5040770;28;19920;-86
2022/03/11 11:11:29;;;;;;;;;;;11.60;38.60;;;;;;5045485;28;20415;-86
2022/03/11 11:13:54;;;;;;;;;;;11.70;38.80;;;;;;5056166;28;20334;-85
2022/03/11 11:16:24;;;;;;;;;;;11.70;38.50;;;;;;5056534;28;19913;-86
2022/03/11 11:18:51;;;;;;;;;;;11.70;38.10;;;;;;5053716;28;19936;-86
2022/03/11 11:21:18;;;;;;;;;;;11.70;37.70;;;;;;5060010;28;19917;-87
2022/03/11 11:23:44;;;;;;;;;;;11.90;38.40;;;;;;5078970;28;20008;-86
2022/03/11 11:26:10;;;;;;;;;;;11.80;39.60;;;;;;5075415;28;19940;-86
2022/03/11 11:28:37;;;;;;;;;;;11.70;40.20;;;;;;5053493;28;19924;-85
2022/03/11 11:31:02;;;;;;;;;;;11.80;39.40;;;;;;5061696;28;19913;-87
2022/03/11 11:33:28;;;;;;;;;;;11.80;39.20;;;;;;5059761;28;19996;-86
2022/03/11 11:35:56;;;;;;;;;;;11.90;39.20;;;;;;5063607;28;19955;-87
2022/03/11 11:38:36;;;;;;;;;;;12.00;39.00;;;;;;5038846;28;19934;-85
2022/03/11 11:41:21;;;;;;;;;;;12.00;38.50;;;;;;5064261;28;19912;-87
2022/03/11 11:43:55;;;;;;;;;;;12.00;37.80;;;;;;5034206;28;19936;-87
2022/03/11 11:46:22;;;;;;;;;;;12.00;38.00;;;;;;5057509;28;20302;-86
2022/03/11 11:48:48;;;;;;;;;;;12.20;38.20;;;;;;5030332;28;19924;-87
2022/03/11 11:51:15;;;;;;;;;;;12.20;37.40;;;;;;5042896;28;19959;-86
2022/03/11 11:53:42;;;;;;;;;;;12.10;38.40;;;;;;5041794;28;20484;-87
2022/03/11 11:56:23;;;;;;;;;;;12.10;37.40;;;;;;5041782;28;20027;-87
2022/03/11 11:58:49;;;;;;;;;;;12.10;38.30;;;;;;5051500;28;19912;-87
2022/03/11 12:01:34;;;;;;;;;;;12.20;38.50;;;;;;5053302;28;19924;-85
2022/03/11 12:04:19;;;;;;;;;;;12.30;37.60;;;;;;5034441;28;19939;-86
2022/03/11 12:06:56;;;;;;;;;;;12.30;37.90;;;;;;5027687;28;20343;-85
2022/03/11 12:09:40;;;;;;;;;;;12.60;36.80;;;;;;5046408;28;19920;-84
2022/03/11 12:12:15;;;;;;;;;;;12.80;36.90;;;;;;5036750;28;19929;-85
2022/03/11 12:14:58;;;;;;;;;;;12.70;36.90;;;;;;5053203;28;19916;-86
2022/03/11 12:17:42;;;;;;;;;;;12.60;36.60;;;;;;5042996;28;19992;-85
2022/03/11 12:20:27;;;;;;;;;;;12.50;38.10;;;;;;5041738;28;19925;-85
2022/03/11 12:22:54;;;;;;;;;;;12.50;36.80;;;;;;5028481;28;19968;-85
2022/03/11 12:25:20;;;;;;;;;;;12.50;37.10;;;;;;5049752;28;19917;-86
2022/03/11 12:28:04;;;;;;;;;;;12.50;36.70;;;;;;5057854;28;19944;-86
2022/03/11 12:30:35;;;;;;;;;;;12.50;37.70;;;;;;5038638;28;19913;-85
2022/03/11 12:33:02;;;;;;;;;;;12.50;37.60;;;;;;5070659;28;19924;-85
2022/03/11 12:35:28;;;;;;;;;;;12.60;38.20;;;;;;5055770;28;20331;-87
2022/03/11 12:37:54;;;;;;;;;;;12.70;38.00;;;;;;5068314;28;19944;-87
2022/03/11 12:40:20;;;;;;;;;;;12.60;38.10;;;;;;5045876;28;19913;-87
2022/03/11 12:42:46;;;;;;;;;;;12.60;37.80;;;;;;5071036;28;19913;-85
2022/03/11 12:45:13;;;;;;;;;;;12.60;37.60;;;;;;5040696;28;20393;-85
2022/03/11 12:47:39;;;;;;;;;;;12.60;37.40;;;;;;5064221;28;19917;-86
2022/03/11 12:50:06;;;;;;;;;;;12.60;38.20;;;;;;5045897;28;19912;-85
2022/03/11 12:52:35;;;;;;;;;;;12.90;37.00;;;;;;5038203;28;20431;-85
2022/03/11 12:55:01;;;;;;;;;;;12.90;36.30;;;;;;5036371;28;20083;-85
2022/03/11 12:57:27;;;;;;;;;;;12.90;36.00;;;;;;5044874;28;19917;-86
2022/03/11 12:59:52;;;;;;;;;;;12.90;36.50;;;;;;5038914;28;19948;-85
2022/03/11 13:02:18;;;;;;;;;;;12.90;36.10;;;;;;5037212;28;20140;-86
2022/03/11 13:04:43;;;;;;;;;;;12.90;37.00;;;;;;5052947;28;19971;-85
2022/03/11 13:07:09;;;;;;;;;;;13.00;36.70;;;;;;5050400;28;19920;-84
2022/03/11 13:09:34;;;;;;;;;;;13.10;36.40;;;;;;5029972;28;21402;-84
2022/03/11 13:12:20;;;;;;;;;;;13.10;37.40;;;;;;5034448;28;19993;-87
2022/03/11 13:14:49;;;;;;;;;;;13.10;37.00;;;;;;5038308;28;19921;-87
2022/03/11 13:17:14;;;;;;;;;;;13.10;36.70;;;;;;5038586;28;19919;-88
2022/03/11 13:19:44;;;;;;;;;;;13.10;35.80;;;;;;5033311;28;19917;-87
2022/03/11 13:22:10;;;;;;;;;;;13.10;35.30;;;;;;5036191;28;19913;-87
2022/03/11 13:24:36;;;;;;;;;;;13.10;37.10;;;;;;5046192;28;19923;-86
2022/03/11 13:27:05;;;;;;;;;;;13.20;36.20;;;;;;5048632;28;19969;-87
2022/03/11 13:29:40;;;;;;;;;;;13.10;36.40;;;;;;5032958;28;19913;-85
2022/03/11 13:32:05;;;;;;;;;;;13.10;36.40;;;;;;5044722;28;19921;-88
2022/03/11 13:34:34;;;;;;;;;;;13.20;36.10;;;;;;5031211;28;19983;-89
2022/03/11 13:37:09;;;;;;;;;;;13.20;36.40;;;;;;5044777;28;19909;-89
2022/03/11 13:39:34;;;;;;;;;;;13.30;35.90;;;;;;5051730;28;19913;-89
2022/03/11 13:42:03;;;;;;;;;;;13.50;35.50;;;;;;5033545;28;19913;-89
2022/03/11 13:44:41;;;;;;;;;;;13.30;36.00;;;;;;5035646;28;19913;-89
2022/03/11 13:47:19;;;;;;;;;;;13.30;36.00;;;;;;5036568;28;19913;-88
2022/03/11 13:49:51;;;;;;;;;;;13.40;36.00;;;;;;5036989;28;19916;-90
2022/03/11 13:52:28;;;;;;;;;;;13.30;36.50;;;;;;5037239;28;19928;-89
2022/03/11 13:55:10;;;;;;;;;;;13.30;36.10;;;;;;5043719;28;19956;-89
2022/03/11 13:57:36;;;;;;;;;;;13.40;35.20;;;;;;5024395;28;19913;-88
2022/03/11 14:00:15;;;;;;;;;;;13.30;35.20;;;;;;5035832;28;19997;-87
2022/03/11 14:02:43;;;;;;;;;;;13.40;36.40;;;;;;5038377;28;19917;-90
2022/03/11 14:05:26;;;;;;;;;;;13.60;35.60;;;;;;5034411;28;19917;-85
2022/03/11 14:07:56;;;;;;;;;;;13.60;35.70;;;;;;5036224;28;20630;-86
2022/03/11 14:10:28;;;;;;;;;;;13.60;36.10;;;;;;5035271;28;19913;-88
2022/03/11 14:13:01;;;;;;;;;;;13.50;36.10;;;;;;5036105;28;19916;-84
2022/03/11 14:15:36;;;;;;;;;;;13.50;35.60;;;;;;5038516;28;19974;-84
2022/03/11 14:18:02;;;;;;;;;;;13.50;35.70;;;;;;5047492;28;19913;-85
2022/03/11 14:20:29;;;;;;;;;;;13.50;35.70;;;;;;5057314;28;20450;-86
2022/03/11 14:22:54;;;;;;;;;;;13.60;36.00;;;;;;5054352;28;19991;-81
2022/03/11 14:25:21;;;;;;;;;;;13.50;35.40;;;;;;5050902;28;20350;-85
2022/03/11 14:27:46;;;;;;;;;;;13.40;35.50;;;;;;5038342;28;19967;-84